メインページ
METAR-TAF:

METAR-TAF

空港 :

アルマトイ国際空港

アルマトイ, カザフスタン

緯度: 43-14N, 経度: 076-56E, 海抜: 847m

現時点の気象観測

当レポートは28分前の19:30(UTC)に作成
南/南東の風 4kt
気温 9°C
湿度 61%
気圧 1017 hPa
視程10km以上

METAR: UAAA 181930Z 16002MPS 9999 NSC 09/02 Q1017 R23L/CLRD65 NOSIG

時間: 01:58 (19:58 UTC)

予報

当レポートは2時間58分前の17:00(UTC)に作成
予報は18日の 18時(UTC)から 19日の 18時(UTC)まで有効
の風 10kt
視程10km以上
18日の 18時(UTC)から 18日の 22時(UTC)まで一時的に
視程: 4000m
19日の 02時(UTC)から 19日の 03時(UTC)まで徐々に
東/北東の風 10kt
高度5000ftの雲は散在している, 積乱雲.
高度10000ftの千切れ雲あり
19日の 02時(UTC)から 19日の 08時(UTC)まで一時的に
西の風 10kt
19日の 12時(UTC)から 19日の 18時(UTC)まで一時的に
視程: 3000m

TAF: UAAA 181700Z 1818/1918 18005MPS 9999 NSC TX27/1909Z TN10/1901Z TEMPO 1818/1822 4000 FU BECMG 1902/1903 06005MPS SCT050CB BKN100 TEMPO 1902/1908 28005MPS TEMPO 1912/1918 3000 FU

4,000以上の空港の気象観測と天気予報(METAR報とTAF報)

利用可能な観測所は地図上に黄色い丸と赤い丸で示す。

丸の上にカーソルを重ねると観測所名を参照できる。

次にクリックすると気象観測と天気予報を参照できる。

マップの切り替え:黒色「×」印の緑ボタンをクリックして拡大、「-」印の緑ボタンをクリックして縮小、緑色の三角印をクリックして隣りの地図に切り替え


METAR-TAF: